Time;durP1;ratioP1;P1;durP2;ratioP2;P2;SDS_P1;SDS_P2;PMS_P1;PMS_P2;Temp;Humidity;BMP_temperature;BMP_pressure;BME280_temperature;BME280_humidity;BME280_pressure;Samples;Min_cycle;Max_cycle;Signal;HPM_P1;HPM_P2
2021/07/28 00:00:59;;;;;;;48.17;26.27;;;;;;;14.92;100.00;100963.31;3604157;39;20040;-60
2021/07/28 00:03:26;;;;;;;43.30;26.48;;;;;;;14.89;100.00;100958.22;3603421;39;20028;-60
2021/07/28 00:05:52;;;;;;;45.28;26.25;;;;;;;14.87;100.00;100955.69;3604035;39;20035;-60
2021/07/28 00:08:21;;;;;;;39.95;24.92;;;;;;;14.91;100.00;100947.22;3601966;39;20041;-61
2021/07/28 00:10:47;;;;;;;48.45;27.13;;;;;;;14.85;100.00;100941.44;3603606;39;20117;-61
2021/07/28 00:13:14;;;;;;;43.60;26.23;;;;;;;14.84;100.00;100941.59;3605908;39;20133;-61
2021/07/28 00:15:41;;;;;;;47.22;25.85;;;;;;;14.87;100.00;100934.00;3604960;39;20311;-61
2021/07/28 00:18:13;;;;;;;41.53;24.75;;;;;;;14.84;100.00;100936.16;3603344;39;20076;-61
2021/07/28 00:23:47;;;;;;;42.22;26.98;;;;;;;14.77;100.00;100930.56;3587460;22;20365;-60
2021/07/28 00:26:14;;;;;;;39.20;25.05;;;;;;;14.77;100.00;100927.00;3603198;39;20042;-61
2021/07/28 00:28:40;;;;;;;41.97;25.67;;;;;;;14.79;100.00;100928.53;3602038;39;20398;-61
2021/07/28 00:31:06;;;;;;;37.75;25.17;;;;;;;14.74;100.00;100927.31;3602063;39;20031;-61
2021/07/28 00:33:33;;;;;;;37.47;23.73;;;;;;;14.70;100.00;100930.34;3603702;39;20034;-61
2021/07/28 00:35:59;;;;;;;39.30;24.30;;;;;;;14.70;100.00;100919.50;3603331;39;20120;-61
2021/07/28 00:38:26;;;;;;;47.20;27.40;;;;;;;14.70;100.00;100930.34;3601369;39;20056;-60
2021/07/28 00:40:54;;;;;;;45.75;26.73;;;;;;;14.68;100.00;100932.38;3601434;39;20042;-61
2021/07/28 00:43:24;;;;;;;48.33;26.55;;;;;;;14.67;100.00;100929.84;3607068;39;20042;-59
2021/07/28 00:45:51;;;;;;;65.75;29.98;;;;;;;14.63;100.00;100929.28;3603529;39;20040;-61
2021/07/28 00:48:17;;;;;;;52.03;28.48;;;;;;;14.62;100.00;100932.16;3602958;39;20128;-61
2021/07/28 00:50:45;;;;;;;55.78;28.92;;;;;;;14.64;100.00;100919.31;3604138;39;20279;-61
2021/07/28 00:53:17;;;;;;;52.58;30.13;;;;;;;14.62;100.00;100916.78;3604204;39;20116;-60
2021/07/28 00:55:44;;;;;;;60.08;30.85;;;;;;;14.65;100.00;100931.84;3602588;39;20375;-60
2021/07/28 00:58:12;;;;;;;56.80;29.15;;;;;;;14.62;100.00;100914.06;3603210;39;20409;-61
2021/07/28 01:00:39;;;;;;;51.90;28.83;;;;;;;14.56;100.00;100917.41;3602558;39;20371;-61
2021/07/28 01:03:05;;;;;;;46.05;27.63;;;;;;;14.60;100.00;100929.59;3599612;39;20125;-61
2021/07/28 01:05:32;;;;;;;48.28;27.23;;;;;;;14.60;100.00;100913.34;3603514;39;20051;-61
2021/07/28 01:07:59;;;;;;;48.70;27.23;;;;;;;14.59;100.00;100911.66;3604121;39;20046;-60
2021/07/28 01:10:25;;;;;;;46.00;25.45;;;;;;;14.59;100.00;100918.91;3601220;39;20428;-61
2021/07/28 01:12:54;;;;;;;50.50;27.58;;;;;;;14.58;100.00;100911.81;3601734;39;20042;-62
2021/07/28 01:15:32;;;;;;;54.40;29.97;;;;;;;14.54;100.00;100913.97;3600470;39;20048;-61
2021/07/28 01:18:00;;;;;;;62.57;31.23;;;;;;;14.57;100.00;100913.66;3599671;39;20028;-59
2021/07/28 01:20:33;;;;;;;48.58;26.17;;;;;;;14.53;100.00;100902.31;3600504;39;20270;-60
2021/07/28 01:23:02;;;;;;;47.20;26.73;;;;;;;14.53;100.00;100906.84;3599805;39;20062;-60
2021/07/28 01:25:32;;;;;;;51.78;27.98;;;;;;;14.52;100.00;100902.47;3601670;39;20054;-61
2021/07/28 01:28:00;;;;;;;49.95;27.30;;;;;;;14.48;100.00;100903.78;3604470;39;20032;-62
2021/07/28 01:30:26;;;;;;;52.70;29.23;;;;;;;14.46;100.00;100900.41;3598856;39;20039;-61
2021/07/28 01:32:53;;;;;;;49.80;29.65;;;;;;;14.51;100.00;100892.63;3599748;39;20032;-60
2021/07/28 01:35:22;;;;;;;45.00;27.83;;;;;;;14.53;100.00;100904.16;3600363;39;20028;-61
2021/07/28 01:37:48;;;;;;;47.78;28.08;;;;;;;14.52;100.00;100899.75;3602860;39;20044;-60
2021/07/28 01:40:15;;;;;;;46.83;27.58;;;;;;;14.47;100.00;100899.38;3598162;39;20046;-60
2021/07/28 01:42:44;;;;;;;46.03;27.30;;;;;;;14.46;100.00;100895.00;3601236;39;20472;-60
2021/07/28 01:45:11;;;;;;;49.58;26.35;;;;;;;14.45;100.00;100894.13;3604536;39;20035;-62
2021/07/28 01:47:37;;;;;;;46.40;25.67;;;;;;;14.46;100.00;100895.84;3604426;39;20046;-61
2021/07/28 01:50:07;;;;;;;50.45;26.80;;;;;;;14.42;100.00;100883.63;3602498;39;20041;-61
2021/07/28 01:52:34;;;;;;;48.10;27.27;;;;;;;14.51;100.00;100885.34;3604964;39;20323;-61
2021/07/28 01:55:00;;;;;;;44.58;26.50;;;;;;;14.49;100.00;100884.69;3602422;39;20032;-61
2021/07/28 01:57:26;;;;;;;43.75;26.10;;;;;;;14.48;100.00;100880.25;3601203;39;20136;-62
2021/07/28 01:59:54;;;;;;;46.13;26.20;;;;;;;14.43;100.00;100870.91;3601630;39;20279;-61
2021/07/28 02:02:21;;;;;;;42.10;25.10;;;;;;;14.48;100.00;100880.25;3597048;39;20047;-62
2021/07/28 02:04:47;;;;;;;43.95;25.90;;;;;;;14.45;100.00;100872.47;3602434;39;20296;-62
2021/07/28 02:07:14;;;;;;;47.30;25.33;;;;;;;14.41;100.00;100883.78;3604500;39;20114;-61
2021/07/28 02:09:40;;;;;;;41.33;25.38;;;;;;;14.36;100.00;100879.69;3601191;39;20036;-61
2021/07/28 02:12:08;;;;;;;39.90;24.00;;;;;;;14.34;100.00;100870.88;3601800;39;20094;-62
2021/07/28 02:14:34;;;;;;;37.58;23.35;;;;;;;14.34;100.00;100881.72;3605532;39;20056;-63
2021/07/28 02:17:02;;;;;;;40.13;24.60;;;;;;;14.33;100.00;100874.59;3603508;39;20036;-61
2021/07/28 02:19:28;;;;;;;50.70;27.85;;;;;;;14.36;100.00;100879.69;3600395;39;20051;-61
2021/07/28 02:21:54;;;;;;;54.25;26.73;;;;;;;14.39;100.00;100883.09;3603655;39;20043;-62
2021/07/28 02:24:21;;;;;;;46.88;26.73;;;;;;;14.36;100.00;100881.56;3596510;39;20360;-61
2021/07/28 02:26:47;;;;;;;47.92;26.27;;;;;;;14.31;100.00;100873.94;3605528;39;20039;-61
2021/07/28 02:29:14;;;;;;;46.22;25.75;;;;;;;14.36;100.00;100876.97;3615535;22;20058;-62
2021/07/28 02:31:40;;;;;;;45.67;26.63;;;;;;;14.30;100.00;100874.94;3597932;39;20024;-61
2021/07/28 02:34:08;;;;;;;44.83;26.52;;;;;;;14.34;100.00;100891.72;3598918;39;20036;-61
2021/07/28 02:36:34;;;;;;;48.55;26.38;;;;;;;14.32;100.00;100872.06;3600747;39;20038;-62
2021/07/28 02:39:01;;;;;;;43.65;26.42;;;;;;;14.30;100.00;100876.78;3598813;39;20044;-62
2021/07/28 02:41:27;;;;;;;47.42;27.05;;;;;;;14.28;100.00;100873.38;3600206;39;20039;-61
2021/07/28 02:43:54;;;;;;;45.78;25.88;;;;;;;14.31;100.00;100876.63;3599886;39;20437;-61
2021/07/28 02:46:21;;;;;;;49.67;28.83;;;;;;;14.43;100.00;100879.91;3602172;39;20039;-61
2021/07/28 02:48:47;;;;;;;50.22;28.52;;;;;;;14.43;100.00;100876.34;3598530;39;20035;-61
2021/07/28 02:51:15;;;;;;;51.15;28.25;;;;;;;14.37;100.00;100870.56;3603257;39;20046;-61
2021/07/28 02:53:41;;;;;;;54.08;28.08;;;;;;;14.38;100.00;100866.00;3601775;39;20390;-61
2021/07/28 02:56:08;;;;;;;60.90;28.77;;;;;;;14.40;100.00;100868.53;3599444;39;20036;-61
2021/07/28 02:58:34;;;;;;;53.60;29.85;;;;;;;14.42;100.00;100870.09;3600132;39;20051;-61
2021/07/28 03:01:01;;;;;;;48.75;28.13;;;;;;;14.46;100.00;100868.75;3605029;39;20038;-61
2021/07/28 03:03:27;;;;;;;53.72;29.08;;;;;;;14.52;100.00;100875.38;3599529;39;20031;-61
2021/07/28 03:05:53;;;;;;;56.33;29.48;;;;;;;14.54;100.00;100876.91;3603942;39;20048;-61
2021/07/28 03:08:22;;;;;;;56.75;29.05;;;;;;;14.62;100.00;100870.72;3599023;39;20048;-60
2021/07/28 03:10:49;;;;;;;58.60;31.53;;;;;;;14.69;100.00;100868.19;3602248;39;20032;-60
2021/07/28 03:13:15;;;;;;;56.83;32.72;;;;;;;14.73;100.00;100872.28;3604329;39;20028;-61
2021/07/28 03:15:42;;;;;;;55.72;31.52;;;;;;;14.76;100.00;100865.69;3601186;39;20140;-59
2021/07/28 03:18:08;;;;;;;51.78;30.75;;;;;;;14.81;100.00;100866.03;3607100;39;20090;-60
2021/07/28 03:20:35;;;;;;;57.03;31.13;;;;;;;14.79;100.00;100870.78;3605837;39;20036;-61
2021/07/28 03:23:02;;;;;;;72.18;32.72;;;;;;;14.83;100.00;100867.59;3603557;39;20439;-61
2021/07/28 03:25:30;;;;;;;55.88;32.13;;;;;;;14.86;100.00;100864.53;3607603;39;20036;-60
2021/07/28 03:27:56;;;;;;;60.25;32.42;;;;;;;14.85;100.00;100862.84;3606582;39;20031;-61
2021/07/28 03:30:23;;;;;;;64.22;32.17;;;;;;;14.91;100.00;100861.34;3604206;39;20064;-60
2021/07/28 03:32:49;;;;;;;59.75;30.95;;;;;;;14.91;100.00;100855.09;3604129;39;20059;-61
2021/07/28 03:35:16;;;;;;;63.85;31.75;;;;;;;14.89;100.00;100856.09;3603052;39;20047;-61
2021/07/28 03:37:42;;;;;;;56.08;31.33;;;;;;;14.94;100.00;100861.00;3605302;39;20036;-60
2021/07/28 03:40:10;;;;;;;60.55;29.83;;;;;;;14.92;100.00;100857.63;3605073;39;20036;-60
2021/07/28 03:42:37;;;;;;;63.15;32.00;;;;;;;14.92;100.00;100864.91;3605458;39;20343;-60
2021/07/28 03:45:05;;;;;;;58.47;30.38;;;;;;;14.93;100.00;100864.75;3605829;39;20040;-61
2021/07/28 03:47:31;;;;;;;59.97;32.60;;;;;;;14.98;100.00;100865.09;3608612;39;20028;-60
2021/07/28 03:49:58;;;;;;;62.33;29.90;;;;;;;15.03;100.00;100864.59;3603062;39;20038;-60
2021/07/28 03:52:24;;;;;;;54.25;28.83;;;;;;;14.99;100.00;100869.50;3607695;39;20056;-60
2021/07/28 03:54:51;;;;;;;61.15;29.77;;;;;;;15.01;100.00;100866.63;3603098;39;20052;-62
2021/07/28 03:57:18;;;;;;;55.45;30.45;;;;;;;15.04;100.00;100869.00;3604375;39;20357;-62
2021/07/28 03:59:45;;;;;;;57.75;31.60;;;;;;;15.04;100.00;100861.72;3603766;39;20051;-61
2021/07/28 04:02:13;;;;;;;55.58;31.13;;;;;;;15.05;100.00;100858.00;3599307;39;20043;-61
2021/07/28 04:04:39;;;;;;;64.05;29.88;;;;;;;15.12;100.00;100862.75;3600733;39;20025;-60
2021/07/28 04:07:06;;;;;;;52.58;28.67;;;;;;;15.13;100.00;100861.75;3600636;39;20478;-61
2021/07/28 04:09:32;;;;;;;54.72;31.05;;;;;;;15.18;100.00;100856.66;3600056;39;20276;-60
2021/07/28 04:11:59;;;;;;;60.03;32.58;;;;;;;15.18;100.00;100856.66;3600150;39;20127;-60
2021/07/28 04:14:26;;;;;;;60.65;32.42;;;;;;;15.21;100.00;100857.19;3602563;39;20047;-60
2021/07/28 04:16:53;;;;;;;63.42;33.33;;;;;;;15.26;100.00;100862.09;3606166;39;20260;-61
2021/07/28 04:19:20;;;;;;;58.25;32.90;;;;;;;15.27;100.00;100863.81;3605471;39;20044;-59
2021/07/28 04:21:46;;;;;;;59.55;32.42;;;;;;;15.28;100.00;100857.34;3602395;39;20038;-60
2021/07/28 04:24:13;;;;;;;64.18;34.50;;;;;;;15.39;100.00;100857.03;3603006;39;20028;-61
2021/07/28 04:26:39;;;;;;;58.78;31.42;;;;;;;15.38;100.00;100852.63;3606086;39;20112;-61
2021/07/28 04:29:05;;;;;;;57.72;31.73;;;;;;;15.40;100.00;100850.59;3603261;39;20048;-59
2021/07/28 04:31:32;;;;;;;60.03;31.83;;;;;;;15.45;100.00;100851.97;3604274;39;20062;-60
2021/07/28 04:34:00;;;;;;;56.67;31.02;;;;;;;15.45;100.00;100849.25;3607675;39;20038;-60
2021/07/28 04:36:26;;;;;;;64.05;31.48;;;;;;;15.45;100.00;100846.56;3607496;39;20109;-60
2021/07/28 04:38:53;;;;;;;57.45;31.25;;;;;;;15.44;100.00;100851.09;3607369;39;20028;-60
2021/07/28 04:41:19;;;;;;;60.95;34.00;;;;;;;15.46;100.00;100856.38;3607503;39;20038;-61
2021/07/28 04:43:45;;;;;;;53.58;30.55;;;;;;;15.50;100.00;100857.72;3608535;39;20068;-61
2021/07/28 04:46:12;;;;;;;60.47;33.10;;;;;;;15.47;100.00;100852.66;3606606;39;20047;-60
2021/07/28 04:48:38;;;;;;;65.13;33.38;;;;;;;15.57;100.00;100850.63;3605372;39;20401;-60
2021/07/28 04:51:06;;;;;;;56.80;29.65;;;;;;;15.59;100.00;100860.28;3607397;39;20061;-61
2021/07/28 04:53:32;;;;;;;58.90;31.35;;;;;;;15.58;100.00;100857.75;3606356;39;20035;-61
2021/07/28 04:56:00;;;;;;;59.80;31.75;;;;;;;15.61;100.00;100854.69;3608170;39;20032;-60
2021/07/28 04:58:26;;;;;;;54.38;29.85;;;;;;;15.64;100.00;100858.94;3605499;39;20392;-61
2021/07/28 05:00:53;;;;;;;53.53;30.38;;;;;;;15.67;100.00;100845.88;3606614;39;20038;-61
2021/07/28 05:05:45;;;;;;;56.47;31.33;;;;;;;15.65;100.00;100836.19;3667214;22;20369;-61
2021/07/28 05:08:13;;;;;;;46.65;28.58;;;;;;;15.75;100.00;100837.75;3601676;39;20127;-60
2021/07/28 05:10:39;;;;;;;49.88;28.75;;;;;;;15.73;100.00;100837.03;3602671;39;20074;-61
2021/07/28 05:13:06;;;;;;;48.90;28.42;;;;;;;15.79;100.00;100837.41;3599335;39;20030;-60
2021/07/28 05:15:33;;;;;;;49.88;29.15;;;;;;;15.81;100.00;100829.94;3603024;39;20132;-60
2021/07/28 05:17:59;;;;;;;41.35;25.65;;;;;;;15.79;100.00;100837.41;3603834;39;20038;-61
2021/07/28 05:20:26;;;;;;;49.72;29.63;;;;;;;15.82;100.00;100826.22;3602129;39;20067;-60
2021/07/28 05:22:52;;;;;;;49.15;28.42;;;;;;;15.88;100.00;100831.78;3602710;39;20024;-60
2021/07/28 05:25:20;;;;;;;48.50;28.05;;;;;;;15.85;100.00;100825.88;3601297;39;20039;-61
2021/07/28 05:27:46;;;;;;;49.40;31.00;;;;;;;15.81;100.00;100827.22;3602919;39;20301;-61
2021/07/28 05:30:14;;;;;;;52.80;29.58;;;;;;;15.86;100.00;100824.88;3606838;39;20038;-60
2021/07/28 05:32:40;;;;;;;48.28;29.17;;;;;;;15.91;100.00;100825.19;3605239;39;20054;-60
2021/07/28 05:35:08;;;;;;;47.60;30.27;;;;;;;15.95;100.00;100826.53;3603224;39;20355;-60
2021/07/28 05:37:34;;;;;;;53.00;29.38;;;;;;;15.95;100.00;100826.53;3603904;39;20117;-61
2021/07/28 05:40:00;;;;;;;49.10;30.42;;;;;;;16.01;100.00;100825.84;3603374;39;20370;-61
2021/07/28 05:42:28;;;;;;;46.42;28.75;;;;;;;16.02;100.00;100822.13;3599364;39;20061;-59
2021/07/28 05:44:55;;;;;;;47.30;29.25;;;;;;;16.08;100.00;100837.72;3603664;39;20040;-61
2021/07/28 05:47:21;;;;;;;49.28;29.08;;;;;;;16.14;100.00;100827.19;3604184;39;20028;-61
2021/07/28 05:49:47;;;;;;;52.95;29.05;;;;;;;16.05;100.00;100832.63;3599133;39;20271;-61
2021/07/28 05:52:14;;;;;;;45.33;29.88;;;;;;;16.11;100.00;100829.22;3602990;39;20040;-61
2021/07/28 05:54:41;;;;;;;44.10;27.77;;;;;;;16.30;100.00;100824.44;3601659;39;20044;-61
2021/07/28 05:57:07;;;;;;;55.60;28.38;;;;;;;16.44;100.00;100823.72;3603688;39;20039;-61
2021/07/28 05:59:35;;;;;;;43.15;27.80;;;;;;;16.39;100.00;100811.66;3605220;39;20044;-61
2021/07/28 06:02:03;;;;;;;49.65;29.88;;;;;;;16.42;100.00;100811.31;3603350;39;20378;-61
2021/07/28 06:04:29;;;;;;;45.28;28.65;;;;;;;16.46;100.00;100824.38;3600962;39;20040;-60
2021/07/28 06:06:56;;;;;;;43.40;28.45;;;;;;;16.46;100.00;100815.38;3591288;39;20060;-62
2021/07/28 06:09:22;;;;;;;42.28;28.17;;;;;;;16.40;100.00;100821.50;3588364;40;20033;-60
2021/07/28 06:11:49;;;;;;;44.78;28.52;;;;;;;16.56;100.00;100818.72;3588839;40;20029;-61
2021/07/28 06:14:15;;;;;;;40.92;27.00;;;;;;;16.52;100.00;100821.94;3545060;40;20028;-62
2021/07/28 06:16:43;;;;;;;43.25;28.88;;;;;;;16.67;100.00;100825.63;3552850;40;20217;-60
2021/07/28 06:19:09;;;;;;;42.65;27.85;;;;;;;16.68;100.00;100821.03;3547806;40;20037;-63
2021/07/28 06:21:36;;;;;;;40.72;27.10;;;;;;;16.68;100.00;100821.91;3553483;40;20039;-61
2021/07/28 06:24:03;;;;;;;39.97;26.95;;;;;;;16.72;100.00;100820.50;3551056;40;21788;-61
2021/07/28 06:26:29;;;;;;;40.95;25.67;;;;;;;16.63;100.00;100824.28;3553754;40;20129;-62
2021/07/28 06:28:56;;;;;;;37.05;25.40;;;;;;;16.61;100.00;100823.63;3550013;40;20040;-61
2021/07/28 06:31:22;;;;;;;37.28;25.20;;;;;;;16.73;100.00;100830.34;3553493;40;20028;-63
2021/07/28 06:33:50;;;;;;;35.53;24.63;;;;;;;16.82;100.00;100828.44;3551790;40;20469;-62
2021/07/28 06:36:17;;;;;;;33.40;24.75;;;;;;;17.04;100.00;100825.97;3554510;40;20032;-60
2021/07/28 06:38:44;;;;;;;34.92;24.95;;;;;;;17.13;100.00;100828.44;3552754;40;20298;-62
2021/07/28 06:41:10;;;;;;;32.72;23.17;;;;;;;17.13;100.00;100820.28;3552588;40;20090;-62
2021/07/28 06:43:37;;;;;;;34.33;22.77;;;;;;;17.23;100.00;100819.22;3552990;40;20438;-61
2021/07/28 06:48:31;;;;;;;31.50;23.00;;;;;;;17.04;100.00;100823.28;3632822;22;20052;-61
2021/07/28 06:50:59;;;;;;;31.27;22.10;;;;;;;16.96;100.00;100815.97;3602409;39;20277;-60
2021/07/28 06:53:25;;;;;;;33.45;23.25;;;;;;;17.06;100.00;100821.19;3603571;39;20048;-60
2021/07/28 06:55:52;;;;;;;30.08;22.23;;;;;;;17.34;100.00;100827.81;3652329;22;20398;-61
2021/07/28 06:58:19;;;;;;;27.90;20.75;;;;;;;17.29;100.00;100813.06;3581767;40;20041;-61
2021/07/28 07:00:45;;;;;;;27.35;22.38;;;;;;;17.27;100.00;100815.97;3556882;40;20041;-63
2021/07/28 07:03:12;;;;;;;29.05;21.02;;;;;;;17.21;100.00;100815.81;3542013;40;20055;-61
2021/07/28 07:05:38;;;;;;;24.25;20.38;;;;;;;17.36;100.00;100824.91;3542489;40;20041;-60
2021/07/28 07:08:07;;;;;;;23.20;19.00;;;;;;;17.31;100.00;100814.59;3552513;40;20378;-61
2021/07/28 07:10:33;;;;;;;22.67;18.67;;;;;;;17.47;100.00;100808.13;3582370;40;20041;-61
2021/07/28 07:12:59;;;;;;;25.52;18.38;;;;;;;17.60;100.00;100812.13;3583195;40;20052;-60
2021/07/28 07:15:26;;;;;;;23.25;18.55;;;;;;;17.52;100.00;100805.72;3582247;40;20031;-63
2021/07/28 07:17:53;;;;;;;25.33;18.08;;;;;;;17.41;100.00;100806.16;3582435;40;20044;-61
2021/07/28 07:20:19;;;;;;;20.63;16.60;;;;;;;17.46;100.00;100808.31;3582659;40;20037;-62
2021/07/28 07:22:46;;;;;;;24.33;17.73;;;;;;;17.32;100.00;100807.25;3581246;40;20056;-62
2021/07/28 07:25:14;;;;;;;19.40;17.13;;;;;;;17.14;100.00;100805.69;3579316;40;20041;-61
2021/07/28 07:27:42;;;;;;;20.05;15.85;;;;;;;17.24;100.00;100810.03;3584061;40;20049;-61
2021/07/28 07:30:10;;;;;;;26.33;17.52;;;;;;;17.24;100.00;100805.44;3583578;40;20029;-61
2021/07/28 07:32:36;;;;;;;23.08;17.33;;;;;;;17.60;100.00;100795.81;3581134;40;20055;-61
2021/07/28 07:35:02;;;;;;;24.00;15.82;;;;;;;17.76;100.00;100792.09;3582392;40;20045;-62
2021/07/28 07:37:29;;;;;;;22.15;16.33;;;;;;;18.00;100.00;100799.19;3581024;40;20033;-61
2021/07/28 07:39:55;;;;;;;21.58;16.38;;;;;;;18.11;100.00;100798.72;3583948;40;20039;-60
2021/07/28 07:42:23;;;;;;;20.42;16.70;;;;;;;18.25;100.00;100796.19;3582008;40;20150;-61
2021/07/28 07:44:50;;;;;;;24.05;16.55;;;;;;;18.50;100.00;100791.28;3581795;40;20035;-61
2021/07/28 07:47:18;;;;;;;19.63;16.10;;;;;;;18.48;100.00;100793.38;3585561;40;20043;-61
2021/07/28 07:49:44;;;;;;;19.70;16.45;;;;;;;18.68;100.00;100794.47;3584115;40;20036;-62
2021/07/28 07:52:10;;;;;;;19.08;16.20;;;;;;;18.34;100.00;100790.47;3583551;40;20036;-62
2021/07/28 07:54:37;;;;;;;22.42;16.08;;;;;;;18.33;100.00;100777.00;3582400;40;20091;-60
2021/07/28 07:57:04;;;;;;;19.60;16.13;;;;;;;18.52;100.00;100786.47;3577412;40;20061;-61
2021/07/28 07:59:31;;;;;;;20.08;16.20;;;;;;;18.65;100.00;100791.25;3575190;40;20090;-61
2021/07/28 08:01:58;;;;;;;18.95;16.02;;;;;;;19.01;100.00;100785.81;3565923;40;20071;-62
2021/07/28 08:04:24;;;;;;;22.75;16.08;;;;;;;18.90;100.00;100784.47;3571647;40;20055;-62
2021/07/28 08:06:51;;;;;;;15.90;14.13;;;;;;;18.59;100.00;100778.41;3569998;40;20069;-61
2021/07/28 08:09:18;;;;;;;17.35;15.05;;;;;;;18.48;100.00;100777.84;3570133;40;20029;-61
2021/07/28 08:11:44;;;;;;;15.50;13.82;;;;;;;18.45;100.00;100782.84;3576052;40;20386;-62
2021/07/28 08:14:10;;;;;;;13.55;11.77;;;;;;;18.60;100.00;100769.19;3568374;40;20296;-62
2021/07/28 08:16:38;;;;;;;15.75;12.70;;;;;;;18.81;100.00;100779.28;3569476;40;20366;-62
2021/07/28 08:19:06;;;;;;;13.65;11.48;;;;;;;18.83;100.00;100766.28;3569459;40;20366;-62
2021/07/28 08:21:33;;;;;;;14.70;10.93;;;;;;;18.55;100.00;100770.59;3570515;40;20050;-62
2021/07/28 08:23:59;;;;;;;13.48;10.32;;;;;;;18.64;100.00;100767.75;3572878;40;20057;-61
2021/07/28 08:26:26;;;;;;;12.93;9.50;;;;;;;18.98;100.00;100758.94;3569999;40;20077;-62
2021/07/28 08:28:53;;;;;;;12.02;9.35;;;;;;;18.71;100.00;100764.09;3572628;40;20075;-62
2021/07/28 08:31:19;;;;;;;10.63;9.00;;;;;;;18.70;100.00;100761.56;3574338;40;20303;-61
2021/07/28 08:33:47;;;;;;;10.35;8.90;;;;;;;19.08;100.00;100759.47;3575686;40;20033;-61
2021/07/28 08:36:14;;;;;;;10.25;8.45;;;;;;;19.47;100.00;100751.00;3573301;40;20406;-63
2021/07/28 08:38:40;;;;;;;12.05;8.32;;;;;;;19.49;100.00;100751.63;3572522;40;20037;-62
2021/07/28 08:41:07;;;;;;;12.48;8.25;;;;;;;19.64;100.00;100748.81;3572113;40;20038;-61
2021/07/28 08:43:34;;;;;;;12.45;8.63;;;;;;;19.63;100.00;100749.88;3572381;40;20428;-63
2021/07/28 08:46:02;;;;;;;9.75;8.60;;;;;;;19.35;100.00;100742.50;3571590;40;20026;-61
2021/07/28 08:48:29;;;;;;;9.20;7.07;;;;;;;19.21;100.00;100763.34;3571607;40;20057;-63
2021/07/28 08:50:58;;;;;;;9.10;7.15;;;;;;;18.89;100.00;100750.03;3572295;40;20040;-60
2021/07/28 08:53:24;;;;;;;8.82;6.55;;;;;;;18.82;100.00;100770.91;3575157;40;20029;-61
2021/07/28 08:55:53;;;;;;;12.55;7.72;;;;;;;18.90;100.00;100762.66;3575829;40;20058;-61
2021/07/28 08:58:23;;;;;;;8.60;7.70;;;;;;;19.00;100.00;100747.84;3583464;40;20052;-61
2021/07/28 09:00:50;;;;;;;8.15;7.05;;;;;;;19.54;100.00;100746.44;3579006;40;20064;-60
2021/07/28 09:03:17;;;;;;;11.68;7.32;;;;;;;19.68;100.00;100750.09;3580001;40;20328;-61
2021/07/28 09:05:45;;;;;;;12.38;7.82;;;;;;;19.71;100.00;100753.28;3582006;40;20045;-60
2021/07/28 09:08:27;;;;;;;15.13;7.20;;;;;;;19.57;100.00;100741.41;3584290;40;20413;-62
2021/07/28 09:10:55;;;;;;;10.02;6.60;;;;;;;19.32;100.00;100749.19;3584762;40;20384;-61
2021/07/28 09:13:30;;;;;;;6.28;5.53;;;;;;;19.23;100.00;100744.91;3582121;40;20067;-61
2021/07/28 09:15:58;;;;;;;10.90;5.72;;;;;;;19.23;100.00;100758.56;3580082;40;20044;-62
2021/07/28 09:18:34;;;;;;;12.52;5.78;;;;;;;19.10;100.00;100756.53;3581691;40;20045;-63
2021/07/28 09:21:01;;;;;;;7.32;5.75;;;;;;;18.75;100.00;100750.91;3585185;40;20029;-62
2021/07/28 09:23:37;;;;;;;6.60;5.28;;;;;;;18.68;100.00;100766.34;3585849;40;20068;-62
2021/07/28 09:26:06;;;;;;;8.38;5.50;;;;;;;18.73;100.00;100758.44;3578396;40;20414;-60
2021/07/28 09:28:33;;;;;;;8.45;5.90;;;;;;;18.52;100.00;100765.53;3580362;40;20096;-61
2021/07/28 09:30:59;;;;;;;10.27;5.57;;;;;;;18.51;100.00;100765.72;3583951;40;20072;-60
2021/07/28 09:33:26;;;;;;;8.70;5.80;;;;;;;18.55;100.00;100769.72;3586685;40;20383;-61
2021/07/28 09:36:22;;;;;;;7.45;5.95;;;;;;;18.49;100.00;100765.91;3583326;40;20391;-62
2021/07/28 09:38:50;;;;;;;10.55;6.13;;;;;;;18.56;100.00;100766.84;3583148;40;20044;-61
2021/07/28 09:41:20;;;;;;;9.10;6.60;;;;;;;18.77;100.00;100767.94;3580501;40;20040;-61
2021/07/28 09:43:52;;;;;;;8.10;6.03;;;;;;;18.91;100.00;100779.84;3584145;40;20053;-61
2021/07/28 09:46:30;;;;;;;14.05;6.47;;;;;;;18.97;100.00;100764.59;3581039;40;20049;-61
2021/07/28 09:48:57;;;;;;;10.52;6.25;;;;;;;19.06;100.00;100771.59;3579670;40;20063;-62
2021/07/28 09:51:31;;;;;;;9.00;5.93;;;;;;;19.12;100.00;100770.81;3581761;40;20036;-62
2021/07/28 09:54:00;;;;;;;9.65;6.22;;;;;;;19.18;100.00;100770.03;3579659;40;20045;-62
2021/07/28 09:56:33;;;;;;;9.15;6.03;;;;;;;19.34;100.00;100765.38;3584503;40;20291;-63
2021/07/28 09:59:00;;;;;;;8.05;6.07;;;;;;;19.29;100.00;100762.38;3579659;40;20035;-61
2021/07/28 10:01:27;;;;;;;8.43;6.53;;;;;;;18.97;100.00;100772.78;3584132;40;20041;-62
2021/07/28 10:03:54;;;;;;;10.88;6.25;;;;;;;19.25;100.00;100754.56;3581879;40;20049;-62
2021/07/28 10:06:22;;;;;;;7.60;6.20;;;;;;;19.28;100.00;100774.34;3579146;40;20064;-61
2021/07/28 10:08:52;;;;;;;9.52;6.43;;;;;;;19.14;100.00;100774.22;3579818;40;20418;-62
2021/07/28 10:11:23;;;;;;;8.93;6.72;;;;;;;19.31;100.00;100769.31;3579657;40;20044;-61
2021/07/28 10:13:50;;;;;;;9.38;6.07;;;;;;;19.58;100.00;100770.41;3583866;40;20045;-61
2021/07/28 10:16:17;;;;;;;10.25;6.20;;;;;;;19.58;100.00;100758.63;3582750;40;20061;-61
2021/07/28 10:18:46;;;;;;;10.75;6.75;;;;;;;19.57;100.00;100746.88;3584252;40;20036;-60
2021/07/28 10:21:12;;;;;;;9.60;6.63;;;;;;;19.35;100.00;100747.97;3580158;40;20036;-62
2021/07/28 10:23:40;;;;;;;8.95;5.43;;;;;;;19.59;100.00;100749.41;3580662;40;20035;-60
2021/07/28 10:26:07;;;;;;;10.63;6.65;;;;;;;20.17;100.00;100751.06;3580354;40;20117;-63
2021/07/28 10:28:35;;;;;;;8.73;6.10;;;;;;;20.08;100.00;100758.56;3573644;40;20041;-61
2021/07/28 10:31:15;;;;;;;7.28;5.90;;;;;;;19.49;100.00;100760.66;3583272;40;20044;-61
2021/07/28 10:33:50;;;;;;;9.65;5.85;;;;;;;19.56;100.00;100758.81;3582732;40;20041;-61
2021/07/28 10:36:17;;;;;;;9.43;6.05;;;;;;;20.02;100.00;100762.94;3577944;40;20380;-60
2021/07/28 10:38:55;;;;;;;9.45;5.30;;;;;;;19.98;100.00;100747.16;3580025;40;20028;-62
2021/07/28 10:41:48;;;;;;;11.32;5.60;;;;;;;19.82;100.00;100751.06;3579154;40;20053;-61
2021/07/28 10:44:20;;;;;;;8.00;5.32;;;;;;;20.35;100.00;100766.94;3579559;40;20033;-61
2021/07/28 10:47:16;;;;;;;9.07;5.70;;;;;;;20.00;100.00;100756.03;3579038;40;20025;-61
2021/07/28 10:49:48;;;;;;;7.05;4.90;;;;;;;19.47;100.00;100743.63;3580989;40;20300;-62
2021/07/28 10:52:38;;;;;;;10.75;5.40;;;;;;;19.97;100.00;100745.50;3580327;40;20041;-59
2021/07/28 10:55:19;;;;;;;9.00;5.05;;;;;;;20.08;100.00;100755.84;3579906;40;20370;-60
2021/07/28 10:58:22;;;;;;;7.53;5.05;;;;;;;20.24;100.00;100752.81;3572403;40;20048;-60
2021/07/28 11:00:54;;;;;;;6.88;5.50;;;;;;;20.00;100.00;100764.22;3568863;40;20056;-60
2021/07/28 11:03:28;;;;;;;8.30;5.90;;;;;;;19.68;100.00;100755.56;3570610;40;20069;-60
2021/07/28 11:06:13;;;;;;;7.47;5.47;;;;;;;19.85;100.00;100756.97;3569306;40;20041;-61
2021/07/28 11:08:40;;;;;;;8.65;5.75;;;;;;;20.41;100.00;100747.81;3571144;40;20041;-61
2021/07/28 11:11:08;;;;;;;10.80;5.55;;;;;;;20.77;100.00;100745.84;3570452;40;20319;-61
2021/07/28 11:13:34;;;;;;;8.27;4.80;;;;;;;20.53;100.00;100750.81;3573389;40;20061;-60
2021/07/28 11:16:04;;;;;;;6.28;4.95;;;;;;;20.71;100.00;100752.16;3570294;40;20054;-60